Time;durP1;ratioP1;P1;durP2;ratioP2;P2;SDS_P1;SDS_P2;PMS_P1;PMS_P2;Temp;Humidity;BMP_temperature;BMP_pressure;BME280_temperature;BME280_humidity;BME280_pressure;Samples;Min_cycle;Max_cycle;Signal;HPM_P1;HPM_P2
2022/05/10 00:01:56;;;;;;;9.98;9.05;;;14.60;99.90;;;;;;4955101;28;20028;-78
2022/05/10 00:04:22;;;;;;;11.50;9.15;;;14.60;99.90;;;;;;4955946;29;20026;-76
2022/05/10 00:06:49;;;;;;;11.15;9.68;;;14.60;99.90;;;;;;4956753;28;20452;-77
2022/05/10 00:09:19;;;;;;;10.77;9.40;;;14.60;99.90;;;;;;4958070;28;20522;-77
2022/05/10 00:11:45;;;;;;;10.77;9.63;;;14.60;99.90;;;;;;4956878;28;20035;-80
2022/05/10 00:14:11;;;;;;;10.93;9.93;;;14.50;99.90;;;;;;4956571;28;20271;-77
2022/05/10 00:16:40;;;;;;;10.77;9.57;;;14.50;99.90;;;;;;4956669;28;20032;-79
2022/05/10 00:19:06;;;;;;;11.02;9.25;;;14.40;99.90;;;;;;4955958;29;20118;-79
2022/05/10 00:21:32;;;;;;;11.82;10.73;;;14.40;99.90;;;;;;4955693;28;20031;-79
2022/05/10 00:23:57;;;;;;;11.13;9.73;;;14.40;99.90;;;;;;4954689;29;20118;-79
2022/05/10 00:26:23;;;;;;;10.38;8.98;;;14.40;99.90;;;;;;4954233;29;20039;-78
2022/05/10 00:28:48;;;;;;;11.52;10.30;;;14.30;99.90;;;;;;4955762;28;20027;-78
2022/05/10 00:31:16;;;;;;;15.60;11.05;;;14.30;99.90;;;;;;4956849;28;20043;-79
2022/05/10 00:33:42;;;;;;;11.25;10.25;;;14.20;99.90;;;;;;4958869;28;20027;-77
2022/05/10 00:36:11;;;;;;;11.80;10.50;;;14.20;99.90;;;;;;4958401;28;20110;-78
2022/05/10 00:38:39;;;;;;;11.13;10.15;;;14.20;99.90;;;;;;4954531;29;20093;-78
2022/05/10 00:41:25;;;;;;;10.90;9.10;;;14.10;99.90;;;;;;4954459;28;20377;-79
2022/05/10 00:43:57;;;;;;;12.10;10.35;;;14.10;99.90;;;;;;4955628;29;20032;-79
2022/05/10 00:46:28;;;;;;;11.20;10.10;;;14.10;99.90;;;;;;4955146;29;20032;-79
2022/05/10 00:49:29;;;;;;;11.63;10.43;;;14.10;99.90;;;;;;4954526;29;20031;-79
2022/05/10 00:52:11;;;;;;;11.68;10.60;;;14.00;99.90;;;;;;4921430;28;20489;-78
2022/05/10 00:54:52;;;;;;;10.88;9.85;;;14.00;99.90;;;;;;4956000;28;20038;-79
2022/05/10 00:57:50;;;;;;;11.20;10.20;;;14.00;99.90;;;;;;4956450;28;20039;-79
2022/05/10 01:00:25;;;;;;;12.60;11.30;;;14.00;99.90;;;;;;4954819;29;20035;-79
2022/05/10 01:03:03;;;;;;;10.85;9.90;;;13.90;99.90;;;;;;4954915;28;20066;-79
2022/05/10 01:05:51;;;;;;;12.00;11.00;;;13.90;99.90;;;;;;4954744;29;20078;-79
2022/05/10 01:08:19;;;;;;;11.20;10.20;;;13.90;99.90;;;;;;4954784;29;20069;-79
2022/05/10 01:11:00;;;;;;;14.15;10.80;;;13.90;99.90;;;;;;4955160;28;20058;-78
2022/05/10 01:13:49;;;;;;;12.45;11.15;;;13.80;99.90;;;;;;4954617;28;20057;-80
2022/05/10 01:16:21;;;;;;;12.35;11.10;;;13.70;99.90;;;;;;4954930;28;20037;-80
2022/05/10 01:18:47;;;;;;;13.68;12.35;;;13.70;99.90;;;;;;4954572;28;20530;-79
2022/05/10 01:21:31;;;;;;;12.88;11.27;;;13.70;99.90;;;;;;4955067;28;20032;-77
2022/05/10 01:24:19;;;;;;;13.73;12.43;;;13.70;99.90;;;;;;4954321;29;20031;-79
2022/05/10 01:27:14;;;;;;;13.85;11.98;;;13.70;99.90;;;;;;4955436;28;20023;-78
2022/05/10 01:29:50;;;;;;;12.82;11.55;;;13.70;99.90;;;;;;4954862;29;20039;-79
2022/05/10 01:35:12;;;;;;;11.35;10.25;;;13.60;99.90;;;;;;4955466;29;20123;-79
2022/05/10 01:37:41;;;;;;;11.75;10.73;;;13.60;99.90;;;;;;4955281;28;20500;-79
2022/05/10 01:40:25;;;;;;;11.73;10.73;;;13.60;99.90;;;;;;4954904;28;20034;-80
2022/05/10 01:43:01;;;;;;;11.80;10.75;;;13.60;99.90;;;;;;4954273;28;20041;-79
2022/05/10 01:45:33;;;;;;;11.57;10.45;;;13.50;99.90;;;;;;4955435;28;20032;-79
2022/05/10 01:48:01;;;;;;;12.68;11.52;;;13.50;99.90;;;;;;4953490;29;20043;-78
2022/05/10 01:50:30;;;;;;;14.27;12.10;;;13.40;99.90;;;;;;4954347;29;20030;-78
2022/05/10 01:53:09;;;;;;;12.63;11.38;;;13.40;99.90;;;;;;4953683;28;20039;-79
2022/05/10 01:56:10;;;;;;;13.82;10.75;;;13.40;99.90;;;;;;4953944;29;20059;-79
2022/05/10 01:58:38;;;;;;;11.98;10.85;;;13.40;99.90;;;;;;4932657;29;20043;-79
2022/05/10 02:01:05;;;;;;;12.68;11.50;;;13.40;99.90;;;;;;4953315;28;20499;-79
2022/05/10 02:03:42;;;;;;;12.52;11.20;;;13.40;99.90;;;;;;4954013;29;20046;-79
2022/05/10 02:06:11;;;;;;;12.40;11.40;;;13.40;99.90;;;;;;4953960;29;20440;-79
2022/05/10 02:08:45;;;;;;;14.73;10.73;;;13.30;99.90;;;;;;4955865;29;20027;-79
2022/05/10 02:11:13;;;;;;;12.45;11.30;;;13.30;99.90;;;;;;4955757;28;20027;-79
2022/05/10 02:13:48;;;;;;;11.60;10.50;;;13.30;99.90;;;;;;4953916;28;20033;-79
2022/05/10 02:16:53;;;;;;;13.02;11.25;;;13.20;99.90;;;;;;4958539;29;20123;-79
2022/05/10 02:19:28;;;;;;;12.70;11.43;;;13.10;99.90;;;;;;4922967;29;20036;-80
2022/05/10 02:21:59;;;;;;;12.90;11.80;;;13.10;99.90;;;;;;4957859;28;20103;-78
2022/05/10 02:24:45;;;;;;;12.95;11.73;;;13.10;99.90;;;;;;4960052;28;20480;-79
2022/05/10 02:27:24;;;;;;;12.00;11.00;;;13.10;99.90;;;;;;4960644;28;20035;-80
2022/05/10 02:29:59;;;;;;;14.80;13.32;;;13.10;99.90;;;;;;4957787;28;20045;-79
2022/05/10 02:35:18;;;;;;;12.73;11.45;;;13.00;99.90;;;;;;4958233;29;20079;-79
2022/05/10 02:37:44;;;;;;;13.43;12.27;;;13.00;99.90;;;;;;4957310;29;20066;-78
2022/05/10 02:40:10;;;;;;;13.13;11.85;;;13.00;99.90;;;;;;4957836;29;20513;-79
2022/05/10 02:42:37;;;;;;;13.43;12.02;;;13.00;99.90;;;;;;4958199;28;20031;-78
2022/05/10 02:45:04;;;;;;;12.55;11.27;;;13.10;99.90;;;;;;4958806;28;20495;-78
2022/05/10 02:47:34;;;;;;;12.93;11.88;;;13.00;99.90;;;;;;4959452;28;20070;-78
2022/05/10 02:50:00;;;;;;;13.27;11.98;;;13.00;99.90;;;;;;4957376;29;20031;-78
2022/05/10 02:52:26;;;;;;;15.45;12.18;;;13.00;99.90;;;;;;4956401;28;20039;-79
2022/05/10 02:54:57;;;;;;;13.10;11.80;;;12.90;99.90;;;;;;4957344;28;20065;-79
2022/05/10 02:57:24;;;;;;;;;;;12.90;99.90;;;;;;4957389;28;20046;-79
2022/05/10 02:59:50;;;;;;;13.20;11.93;;;12.90;99.90;;;;;;4956699;29;20369;-79
2022/05/10 03:02:33;;;;;;;12.95;11.70;;;13.00;99.90;;;;;;4956719;28;20035;-80
2022/05/10 03:04:59;;;;;;;14.05;12.90;;;13.00;99.90;;;;;;4956830;29;20063;-79
2022/05/10 03:07:26;;;;;;;13.18;11.98;;;12.90;99.90;;;;;;4956545;29;20369;-79
2022/05/10 03:09:52;;;;;;;14.90;13.55;;;12.90;99.90;;;;;;4956279;28;20035;-79
2022/05/10 03:12:17;;;;;;;13.98;12.68;;;12.80;99.90;;;;;;4956349;28;20034;-81
2022/05/10 03:14:43;;;;;;;13.88;12.57;;;12.80;99.90;;;;;;4956231;28;20029;-78
2022/05/10 03:17:10;;;;;;;12.55;11.55;;;12.70;99.90;;;;;;4956482;28;20134;-79
2022/05/10 03:19:37;;;;;;;13.20;11.90;;;12.80;99.90;;;;;;4956259;28;20492;-79
2022/05/10 03:22:03;;;;;;;13.77;12.40;;;12.80;99.90;;;;;;4955589;28;20114;-80
2022/05/10 03:24:28;;;;;;;14.25;12.23;;;12.80;99.90;;;;;;4955942;29;20065;-79
2022/05/10 03:26:55;;;;;;;13.98;12.68;;;12.80;99.90;;;;;;4954955;28;20031;-77
2022/05/10 03:29:21;;;;;;;13.13;12.00;;;12.70;99.90;;;;;;4958549;28;20094;-79
2022/05/10 03:31:47;;;;;;;14.38;12.57;;;12.60;99.90;;;;;;4957355;28;20077;-79
2022/05/10 03:36:57;;;;;;;18.42;13.13;;;12.60;99.90;;;;;;4956387;29;20392;-78
2022/05/10 03:39:23;;;;;;;18.15;13.10;;;12.60;99.90;;;;;;4954777;29;20026;-78
2022/05/10 03:41:49;;;;;;;15.70;12.88;;;12.50;99.90;;;;;;4954442;28;20031;-79
2022/05/10 03:44:14;;;;;;;14.15;12.75;;;12.50;99.90;;;;;;4956941;28;20038;-79
2022/05/10 03:46:40;;;;;;;13.85;12.43;;;12.60;99.90;;;;;;4956049;29;20035;-79
2022/05/10 03:49:06;;;;;;;14.20;12.93;;;12.60;99.90;;;;;;4956682;28;20358;-78
2022/05/10 03:51:32;;;;;;;14.27;12.65;;;12.60;99.90;;;;;;4956112;28;20117;-79
2022/05/10 03:53:58;;;;;;;13.93;12.63;;;12.60;99.90;;;;;;4957111;28;20075;-79
2022/05/10 03:56:24;;;;;;;14.25;12.98;;;12.60;99.90;;;;;;4955666;28;20030;-78
2022/05/10 03:58:49;;;;;;;14.65;13.25;;;12.60;99.90;;;;;;4955202;29;20488;-78
2022/05/10 04:01:19;;;;;;;16.10;13.57;;;12.60;99.90;;;;;;4954658;28;20027;-79
2022/05/10 04:03:45;;;;;;;15.90;14.20;;;12.60;99.90;;;;;;4955098;29;20035;-79
2022/05/10 04:06:11;;;;;;;14.35;13.05;;;12.70;99.90;;;;;;4954430;29;20381;-79
2022/05/10 04:08:37;;;;;;;14.90;13.15;;;12.70;99.90;;;;;;4954174;29;20027;-79
2022/05/10 04:11:04;;;;;;;15.32;13.63;;;12.70;99.90;;;;;;4955395;28;20040;-79
2022/05/10 04:13:31;;;;;;;15.27;13.82;;;12.80;99.90;;;;;;4956512;28;20451;-79
2022/05/10 04:15:58;;;;;;;15.05;13.60;;;12.80;99.90;;;;;;4956059;29;20091;-78
2022/05/10 04:18:23;;;;;;;14.93;13.35;;;13.00;99.90;;;;;;4957171;28;20039;-79
2022/05/10 04:20:49;;;;;;;18.15;14.10;;;13.20;99.90;;;;;;4955884;28;20114;-78
2022/05/10 04:23:14;;;;;;;14.18;12.82;;;13.40;99.90;;;;;;4954064;29;20031;-79
2022/05/10 04:25:40;;;;;;;14.50;11.70;;;13.70;99.90;;;;;;4954686;29;20428;-80
2022/05/10 04:28:06;;;;;;;14.88;12.52;;;13.80;99.90;;;;;;4954423;29;20054;-79
2022/05/10 04:30:32;;;;;;;14.55;13.15;;;14.00;99.90;;;;;;4956054;29;20027;-79
2022/05/10 04:32:58;;;;;;;15.73;11.40;;;14.30;99.90;;;;;;4956953;28;20071;-79
2022/05/10 04:35:23;;;;;;;17.33;12.25;;;14.60;99.90;;;;;;4960716;29;20042;-78
2022/05/10 04:37:49;;;;;;;14.57;10.80;;;14.80;99.90;;;;;;4955238;28;20498;-79
2022/05/10 04:42:59;;;;;;;12.20;10.60;;;15.20;99.90;;;;;;4955313;28;20103;-81
2022/05/10 04:45:24;;;;;;;10.75;9.57;;;16.10;99.90;;;;;;4955248;28;20070;-80
2022/05/10 04:47:50;;;;;;;13.43;10.75;;;16.60;99.90;;;;;;4956524;28;20049;-77
2022/05/10 04:50:15;;;;;;;14.45;13.05;;;16.60;99.90;;;;;;4954457;29;20039;-79
2022/05/10 04:52:41;;;;;;;11.57;9.98;;;16.80;99.90;;;;;;4954343;28;20090;-79
2022/05/10 04:55:09;;;;;;;12.80;9.85;;;16.90;99.90;;;;;;4954379;29;20023;-80
2022/05/10 04:57:38;;;;;;;11.05;10.05;;;17.50;99.90;;;;;;4954852;29;20050;-77
2022/05/10 05:00:10;;;;;;;11.90;10.35;;;18.20;99.90;;;;;;4956413;28;20054;-80
2022/05/10 05:02:36;;;;;;;15.27;9.73;;;18.20;99.90;;;;;;4955564;28;20094;-78
2022/05/10 05:05:03;;;;;;;10.68;8.80;;;18.40;99.90;;;;;;4954132;29;20031;-78
2022/05/10 05:07:28;;;;;;;10.50;9.55;;;19.40;99.90;;;;;;4954923;29;20027;-80
2022/05/10 05:09:54;;;;;;;11.55;8.95;;;19.30;99.90;;;;;;4954454;29;20031;-79
2022/05/10 05:12:21;;;;;;;15.95;8.45;;;19.80;99.90;;;;;;4955377;28;20027;-78
2022/05/10 05:14:47;;;;;;;12.07;9.15;;;20.10;99.90;;;;;;4955850;28;20106;-79
2022/05/10 05:17:13;;;;;;;16.00;8.93;;;19.90;99.90;;;;;;4956425;28;20566;-80
2022/05/10 05:19:38;;;;;;;10.52;9.45;;;19.90;99.90;;;;;;4955604;28;20392;-80
2022/05/10 05:22:04;;;;;;;13.27;8.90;;;19.10;99.90;;;;;;4953605;28;20058;-79
2022/05/10 05:24:29;;;;;;;9.50;8.50;;;18.90;99.90;;;;;;4953585;29;20022;-79
2022/05/10 05:26:55;;;;;;;9.30;8.35;;;19.80;99.90;;;;;;4955160;28;20055;-79
2022/05/10 05:29:21;;;;;;;11.02;8.32;;;21.10;99.90;;;;;;4955147;28;20039;-79
2022/05/10 05:31:48;;;;;;;9.80;8.00;;;21.10;99.90;;;;;;4955696;28;20117;-79
2022/05/10 05:34:13;;;;;;;8.90;8.00;;;20.70;99.90;;;;;;4953857;29;20062;-80
2022/05/10 05:36:39;;;;;;;9.80;8.80;;;20.70;99.90;;;;;;4954236;29;20067;-79
2022/05/10 05:39:04;;;;;;;8.32;7.70;;;20.00;99.90;;;;;;4955449;28;20075;-79
2022/05/10 05:41:30;;;;;;;8.85;8.10;;;19.80;99.90;;;;;;4955023;28;20035;-80
2022/05/10 05:43:55;;;;;;;12.35;9.10;;;21.00;99.90;;;;;;4955742;28;20527;-80
2022/05/10 05:46:21;;;;;;;13.02;9.27;;;21.40;99.90;;;;;;4955642;28;20042;-79
2022/05/10 05:48:47;;;;;;;9.23;8.40;;;21.60;99.90;;;;;;4955732;28;20034;-81
2022/05/10 05:51:12;;;;;;;9.10;8.30;;;21.00;99.90;;;;;;4958710;28;20097;-80
2022/05/10 05:53:38;;;;;;;9.48;8.63;;;21.20;99.90;;;;;;4957688;29;20066;-79
2022/05/10 05:56:08;;;;;;;11.20;8.02;;;21.40;99.90;;;;;;4957483;28;20038;-79
2022/05/10 05:58:38;;;;;;;10.70;9.57;;;20.40;99.90;;;;;;4958370;28;20047;-80
2022/05/10 06:01:16;;;;;;;11.50;10.25;;;21.00;99.90;;;;;;4958535;28;20082;-79
2022/05/10 06:03:45;;;;;;;10.48;8.60;;;21.20;99.90;;;;;;4957524;29;20071;-79
2022/05/10 06:06:12;;;;;;;10.43;9.18;;;21.10;99.90;;;;;;4958165;28;20476;-78
2022/05/10 06:08:37;;;;;;;12.18;10.18;;;21.20;99.90;;;;;;4956945;29;20038;-80
2022/05/10 06:11:03;;;;;;;10.13;9.20;;;20.10;99.90;;;;;;4956912;28;20035;-76
2022/05/10 06:13:28;;;;;;;10.73;9.75;;;19.50;99.90;;;;;;4957453;28;20035;-77
2022/05/10 06:15:54;;;;;;;10.32;9.27;;;19.50;99.90;;;;;;4957461;28;20037;-79
2022/05/10 06:18:20;;;;;;;12.38;10.00;;;19.30;99.90;;;;;;4957749;28;20067;-77
2022/05/10 06:20:45;;;;;;;11.60;10.13;;;19.30;99.90;;;;;;4957854;28;20055;-77
2022/05/10 06:23:11;;;;;;;10.65;9.63;;;19.10;99.90;;;;;;4956015;28;20023;-77
2022/05/10 06:25:37;;;;;;;14.48;9.27;;;19.10;99.90;;;;;;4957338;28;20035;-77
2022/05/10 06:28:04;;;;;;;11.93;10.30;;;19.00;99.90;;;;;;4955841;29;20035;-77
2022/05/10 06:30:30;;;;;;;11.70;10.65;;;19.10;99.90;;;;;;4956233;29;20027;-78
2022/05/10 06:32:57;;;;;;;11.93;10.80;;;19.00;99.90;;;;;;4957781;28;20039;-77
2022/05/10 06:35:23;;;;;;;14.45;10.50;;;19.00;99.90;;;;;;4956978;29;20114;-77
2022/05/10 06:40:34;;;;;;;14.60;10.85;;;19.00;99.90;;;;;;4959198;29;20034;-78
2022/05/10 06:43:00;;;;;;;12.82;10.15;;;19.30;99.90;;;;;;4956559;28;20075;-78
2022/05/10 06:45:26;;;;;;;14.20;10.52;;;19.20;99.90;;;;;;4958507;28;20027;-77
2022/05/10 06:47:51;;;;;;;13.38;9.98;;;19.20;99.90;;;;;;4958060;28;20508;-77
2022/05/10 06:50:20;;;;;;;10.50;9.40;;;19.60;99.90;;;;;;4959208;28;20035;-77
2022/05/10 06:52:46;;;;;;;10.32;9.32;;;19.70;99.90;;;;;;4958925;28;20035;-77
2022/05/10 06:55:12;;;;;;;11.63;10.38;;;19.80;99.90;;;;;;4960240;28;20031;-76
2022/05/10 06:57:37;;;;;;;17.92;11.27;;;19.80;99.90;;;;;;4959448;29;20054;-77
2022/05/10 07:00:07;;;;;;;11.55;10.30;;;19.80;99.90;;;;;;4959357;28;20023;-77
2022/05/10 07:02:32;;;;;;;12.10;10.32;;;19.80;99.90;;;;;;4955098;28;20122;-78
2022/05/10 07:04:58;;;;;;;13.18;11.85;;;19.80;99.90;;;;;;4959572;28;20055;-78
2022/05/10 07:07:24;;;;;;;12.20;11.02;;;20.10;99.90;;;;;;4963136;28;20066;-78
2022/05/10 07:09:50;;;;;;;12.48;11.27;;;20.20;99.90;;;;;;4955773;29;20035;-77
2022/05/10 07:12:16;;;;;;;13.52;11.65;;;20.20;99.90;;;;;;4956961;28;20050;-77
2022/05/10 07:14:45;;;;;;;14.45;12.63;;;20.20;99.90;;;;;;4955183;29;20034;-76
2022/05/10 07:17:11;;;;;;;16.80;11.75;;;20.30;99.90;;;;;;4954879;29;20027;-78
2022/05/10 07:19:36;;;;;;;15.20;10.77;;;20.40;99.90;;;;;;4956427;28;20054;-77
2022/05/10 07:22:02;;;;;;;15.05;11.90;;;20.40;99.90;;;;;;4954654;28;20491;-77
2022/05/10 07:24:28;;;;;;;13.27;11.45;;;20.50;99.90;;;;;;4954930;29;20090;-77
2022/05/10 07:26:54;;;;;;;13.93;11.27;;;20.50;99.90;;;;;;4956769;28;20451;-77
2022/05/10 07:29:19;;;;;;;14.68;10.88;;;20.70;99.90;;;;;;4956711;28;20066;-77
2022/05/10 07:31:45;;;;;;;13.38;11.05;;;20.80;99.90;;;;;;4956923;28;20034;-78
2022/05/10 07:34:11;;;;;;;11.60;10.50;;;20.80;99.90;;;;;;4956812;28;20039;-77
2022/05/10 07:36:37;;;;;;;12.48;9.77;;;20.90;99.90;;;;;;4954549;29;20039;-77
2022/05/10 07:39:08;;;;;;;10.48;9.57;;;21.00;99.90;;;;;;4954509;29;20035;-79
2022/05/10 07:41:35;;;;;;;10.48;9.38;;;21.20;99.90;;;;;;4956267;28;20028;-77
2022/05/10 07:44:01;;;;;;;10.32;9.20;;;21.10;99.90;;;;;;4955859;28;20035;-78
2022/05/10 07:46:26;;;;;;;10.60;9.50;;;21.40;99.90;;;;;;4955858;28;20039;-78
2022/05/10 07:48:52;;;;;;;11.95;10.20;;;21.50;99.90;;;;;;4955129;29;20447;-77
2022/05/10 07:51:19;;;;;;;15.93;9.50;;;21.70;99.90;;;;;;4954067;28;20055;-76
2022/05/10 07:53:45;;;;;;;16.08;10.70;;;21.80;99.90;;;;;;4955350;28;20110;-77
2022/05/10 07:56:10;;;;;;;10.30;9.40;;;21.90;99.90;;;;;;4954070;29;20520;-77
2022/05/10 07:58:36;;;;;;;10.15;9.20;;;22.00;99.90;;;;;;4955932;28;20063;-77
2022/05/10 08:01:04;;;;;;;10.10;8.93;;;22.00;99.90;;;;;;4955659;28;20053;-76
2022/05/10 08:03:30;;;;;;;10.27;9.02;;;22.20;99.90;;;;;;4955633;28;20077;-77
2022/05/10 08:05:56;;;;;;;8.23;7.47;;;22.30;99.90;;;;;;4955251;28;20027;-77
2022/05/10 08:08:27;;;;;;;9.52;8.00;;;22.40;99.90;;;;;;4954506;28;20031;-77
2022/05/10 08:10:54;;;;;;;9.07;7.53;;;22.50;99.90;;;;;;4954157;28;20496;-78
2022/05/10 08:13:25;;;;;;;9.93;8.18;;;22.50;99.90;;;;;;4953834;28;20550;-79
2022/05/10 08:15:52;;;;;;;9.60;8.60;;;22.50;99.90;;;;;;4954815;28;20484;-77
2022/05/10 08:18:19;;;;;;;17.30;8.95;;;22.40;99.90;;;;;;4953443;29;20031;-77
2022/05/10 08:20:45;;;;;;;10.02;8.27;;;22.40;99.90;;;;;;4955370;28;20495;-78
2022/05/10 08:23:16;;;;;;;9.68;7.78;;;22.30;99.90;;;;;;4955142;28;20086;-77
2022/05/10 08:25:41;;;;;;;8.95;8.07;;;22.40;99.90;;;;;;4953936;29;20432;-77
2022/05/10 08:28:13;;;;;;;9.88;7.30;;;22.50;99.90;;;;;;4955546;28;20039;-76
2022/05/10 08:30:43;;;;;;;11.38;8.07;;;22.70;99.90;;;;;;4953555;28;20054;-78
2022/05/10 08:33:10;;;;;;;9.20;7.45;;;22.80;99.90;;;;;;4954159;28;20151;-77
2022/05/10 08:35:37;;;;;;;11.82;6.70;;;23.00;99.90;;;;;;4954999;28;20031;-77
2022/05/10 08:38:03;;;;;;;12.38;7.45;;;23.20;99.90;;;;;;4956398;28;20522;-79
2022/05/10 08:40:33;;;;;;;8.15;6.63;;;23.30;99.90;;;;;;4955159;28;20498;-78
2022/05/10 08:43:02;;;;;;;7.82;6.00;;;23.30;99.90;;;;;;4954627;28;20027;-78
2022/05/10 08:45:29;;;;;;;7.28;6.65;;;23.50;99.90;;;;;;4953741;29;20065;-77
2022/05/10 08:47:55;;;;;;;6.45;5.70;;;23.70;99.90;;;;;;4953950;29;20027;-77
2022/05/10 08:50:21;;;;;;;12.07;6.85;;;23.70;99.90;;;;;;4956300;29;20488;-77
2022/05/10 08:52:51;;;;;;;7.15;6.43;;;23.70;99.90;;;;;;4965040;28;20535;-78
2022/05/10 08:55:23;;;;;;;6.65;5.88;;;24.00;99.90;;;;;;4961914;29;20110;-78
2022/05/10 08:57:58;;;;;;;7.72;5.50;;;24.20;99.70;;;;;;4959256;28;20049;-79
2022/05/10 09:00:40;;;;;;;5.75;5.18;;;24.10;99.90;;;;;;4955976;29;20023;-77
2022/05/10 09:03:30;;;;;;;7.38;6.00;;;24.40;98.40;;;;;;4955121;28;20074;-77
2022/05/10 09:06:17;;;;;;;5.50;5.00;;;24.30;98.40;;;;;;4953580;29;20101;-78
2022/05/10 09:09:13;;;;;;;11.85;5.68;;;24.20;98.80;;;;;;4954916;28;20023;-77
2022/05/10 09:11:48;;;;;;;7.35;5.15;;;24.50;98.40;;;;;;4954534;28;20119;-76
2022/05/10 09:14:14;;;;;;;7.47;4.50;;;24.60;97.60;;;;;;4954248;28;20455;-77
2022/05/10 09:16:39;;;;;;;5.40;4.47;;;24.50;96.60;;;;;;4952765;29;20058;-78
2022/05/10 09:19:06;;;;;;;4.57;4.28;;;24.70;95.60;;;;;;4954371;28;20059;-78
2022/05/10 09:21:54;;;;;;;5.07;4.13;;;24.70;94.10;;;;;;4952793;28;20066;-78
2022/05/10 09:24:53;;;;;;;4.55;4.13;;;24.60;94.00;;;;;;4953023;29;20035;-78
2022/05/10 09:27:21;;;;;;;4.57;4.18;;;24.70;93.50;;;;;;4953523;28;20126;-78
2022/05/10 09:29:49;;;;;;;5.13;4.15;;;25.00;93.40;;;;;;4955424;28;20055;-77
2022/05/10 09:35:19;;;;;;;4.55;4.00;;;25.20;92.50;;;;;;4954054;29;20170;-77
2022/05/10 09:37:54;;;;;;;4.35;3.95;;;25.40;91.60;;;;;;4953103;29;20283;-78
2022/05/10 09:40:35;;;;;;;4.00;3.60;;;25.20;92.00;;;;;;4954313;28;20428;-77
2022/05/10 09:43:28;;;;;;;5.13;3.83;;;25.40;90.70;;;;;;4954037;28;20023;-77
2022/05/10 09:46:18;;;;;;;4.22;2.90;;;25.80;90.10;;;;;;4952729;28;20044;-77
2022/05/10 09:48:45;;;;;;;3.30;3.10;;;25.70;87.20;;;;;;4953153;29;20027;-77
2022/05/10 09:51:37;;;;;;;3.75;3.30;;;25.80;87.60;;;;;;4953899;28;20062;-78
2022/05/10 09:54:22;;;;;;;4.40;3.20;;;25.10;87.40;;;;;;4955144;28;20031;-77
2022/05/10 09:56:55;;;;;;;3.42;2.60;;;25.30;88.20;;;;;;4956384;28;20031;-78
2022/05/10 09:59:28;;;;;;;3.65;3.22;;;25.50;86.60;;;;;;4954683;28;20387;-77
2022/05/10 10:01:57;;;;;;;4.18;3.50;;;25.80;86.70;;;;;;4952803;28;20502;-76
2022/05/10 10:04:28;;;;;;;6.57;3.97;;;25.80;87.00;;;;;;4954204;28;20455;-77
2022/05/10 10:07:06;;;;;;;4.30;3.90;;;25.90;86.20;;;;;;4954286;28;20457;-77
2022/05/10 10:09:51;;;;;;;5.28;4.15;;;26.20;86.90;;;;;;4952849;28;20024;-77
2022/05/10 10:12:39;;;;;;;3.63;3.33;;;26.00;87.10;;;;;;4953884;28;20110;-77
2022/05/10 10:15:24;;;;;;;3.42;3.13;;;26.00;87.00;;;;;;4953707;28;20041;-77
2022/05/10 10:18:11;;;;;;;3.40;3.10;;;25.80;86.50;;;;;;4954755;28;20091;-80
2022/05/10 10:20:48;;;;;;;3.75;3.38;;;26.00;85.90;;;;;;4953086;29;20039;-77
2022/05/10 10:23:36;;;;;;;4.05;3.40;;;25.80;84.60;;;;;;4954096;28;20368;-77
2022/05/10 10:26:16;;;;;;;3.10;2.90;;;26.20;83.10;;;;;;4952748;29;20138;-77
2022/05/10 10:28:52;;;;;;;4.55;3.65;;;26.30;82.80;;;;;;4953720;28;20039;-78
2022/05/10 10:31:26;;;;;;;3.78;3.45;;;26.40;84.30;;;;;;4952704;28;20035;-78
2022/05/10 10:34:22;;;;;;;4.18;3.25;;;26.20;82.30;;;;;;4954182;28;20182;-78
2022/05/10 10:37:06;;;;;;;5.03;2.92;;;26.30;82.60;;;;;;4955210;28;20039;-78
2022/05/10 10:39:39;;;;;;;3.28;3.08;;;26.00;82.40;;;;;;4957763;28;20031;-77
2022/05/10 10:42:10;;;;;;;3.50;3.10;;;25.30;82.90;;;;;;4959565;28;20023;-78
2022/05/10 10:44:41;;;;;;;3.35;3.05;;;25.50;82.50;;;;;;4957280;28;20031;-78
2022/05/10 10:47:16;;;;;;;;;;;25.70;81.50;;;;;;4956618;29;20074;-78
2022/05/10 10:49:53;;;;;;;3.20;2.90;;;25.50;82.80;;;;;;4957606;28;19990;-77
2022/05/10 10:52:19;;;;;;;3.40;3.00;;;25.50;81.50;;;;;;4955931;28;20050;-77
2022/05/10 10:54:46;;;;;;;6.28;3.13;;;25.40;81.50;;;;;;4957565;28;20039;-78
2022/05/10 10:57:19;;;;;;;3.45;3.15;;;25.60;81.00;;;;;;4957535;28;20038;-79
2022/05/10 11:00:03;;;;;;;4.20;3.15;;;25.80;80.50;;;;;;4956018;29;20080;-78
2022/05/10 11:02:37;;;;;;;3.20;2.90;;;25.90;79.70;;;;;;4955831;28;20027;-78
2022/05/10 11:05:30;;;;;;;2.95;2.75;;;26.60;78.40;;;;;;4956956;28;20028;-77
2022/05/10 11:08:01;;;;;;;3.20;2.90;;;26.90;77.40;;;;;;4957347;28;20050;-78
2022/05/10 11:10:54;;;;;;;2.90;2.70;;;26.90;76.80;;;;;;4958864;28;20118;-78
2022/05/10 11:13:40;;;;;;;3.10;2.80;;;27.20;76.50;;;;;;4955626;29;20031;-78
2022/05/10 11:16:37;;;;;;;3.53;2.88;;;26.40;75.50;;;;;;4956835;28;20065;-77
2022/05/10 11:19:32;;;;;;;3.50;2.90;;;26.30;77.60;;;;;;4956770;28;20031;-77
2022/05/10 11:22:07;;;;;;;3.13;2.83;;;26.60;76.20;;;;;;4957258;28;20042;-79
2022/05/10 11:24:51;;;;;;;3.15;2.85;;;26.80;76.20;;;;;;4957119;28;20140;-78
2022/05/10 11:28:01;;;;;;;3.72;2.75;;;26.50;75.20;;;;;;4956828;28;20491;-78
2022/05/10 11:30:57;;;;;;;4.78;2.85;;;26.70;74.70;;;;;;4956835;28;20054;-78
2022/05/10 11:33:50;;;;;;;2.83;2.63;;;27.20;75.40;;;;;;4955223;29;20119;-76
2022/05/10 11:36:21;;;;;;;3.72;3.42;;;27.20;73.30;;;;;;4956599;28;20035;-79
2022/05/10 11:39:00;;;;;;;3.50;3.20;;;26.80;73.10;;;;;;4957228;28;20443;-77
2022/05/10 11:41:25;;;;;;;4.07;2.63;;;26.60;74.00;;;;;;4956455;28;20057;-78
2022/05/10 11:43:57;;;;;;;2.58;2.38;;;26.50;72.30;;;;;;4956346;29;20070;-77
2022/05/10 11:47:00;;;;;;;2.80;2.55;;;26.50;72.90;;;;;;4954570;28;20031;-77
2022/05/10 11:49:47;;;;;;;3.70;2.70;;;27.60;71.10;;;;;;4959147;29;20019;-79
2022/05/10 11:52:31;;;;;;;2.30;2.20;;;27.50;71.90;;;;;;4957566;28;20046;-79
2022/05/10 11:55:12;;;;;;;2.95;2.67;;;26.70;70.90;;;;;;4961444;29;20121;-76
2022/05/10 11:57:38;;;;;;;2.65;2.30;;;26.50;71.10;;;;;;4960560;28;20035;-76
2022/05/10 12:00:26;;;;;;;3.03;2.80;;;26.30;72.20;;;;;;4956757;29;20032;-78
2022/05/10 12:02:52;;;;;;;3.10;2.75;;;26.70;71.70;;;;;;4954800;28;20031;-78
2022/05/10 12:05:28;;;;;;;2.95;2.60;;;27.10;72.30;;;;;;4954198;28;20138;-78
2022/05/10 12:08:01;;;;;;;2.50;2.30;;;27.30;72.30;;;;;;4955927;28;20035;-77
2022/05/10 12:10:35;;;;;;;2.50;2.20;;;27.90;71.60;;;;;;4954830;28;20475;-78
2022/05/10 12:13:06;;;;;;;2.90;2.47;;;27.90;70.40;;;;;;4957046;28;20130;-80
2022/05/10 12:21:38;;;;;;;4.72;2.42;;;27.20;70.00;;;;;;4956528;28;20039;-79
2022/05/10 12:24:06;;;;;;;3.05;2.10;;;26.90;68.90;;;;;;4955133;29;20031;-81
2022/05/10 12:26:32;;;;;;;2.55;2.35;;;27.00;68.10;;;;;;4955755;29;20038;-80
2022/05/10 12:28:57;;;;;;;2.60;2.40;;;26.80;69.10;;;;;;4956718;28;20027;-80
2022/05/10 12:31:24;;;;;;;2.92;2.50;;;27.20;69.30;;;;;;4956493;28;20031;-81
2022/05/10 12:34:00;;;;;;;3.10;2.78;;;27.30;69.50;;;;;;4955222;29;20503;-81
2022/05/10 12:36:35;;;;;;;3.75;2.25;;;27.20;68.80;;;;;;4954868;28;20035;-80
2022/05/10 12:39:25;;;;;;;2.58;2.38;;;27.00;68.70;;;;;;4955245;28;20122;-80
2022/05/10 12:42:06;;;;;;;3.05;2.60;;;26.90;68.80;;;;;;4956462;28;20027;-80
2022/05/10 12:44:38;;;;;;;2.72;2.53;;;27.00;69.40;;;;;;4958941;29;20047;-80
2022/05/10 12:47:41;;;;;;;5.15;2.53;;;26.80;68.30;;;;;;4956183;28;20087;-80
2022/05/10 12:50:24;;;;;;;2.55;2.35;;;26.60;69.20;;;;;;4955007;29;20043;-79
2022/05/10 12:52:49;;;;;;;2.55;2.22;;;26.70;68.60;;;;;;4956803;28;20058;-79
2022/05/10 12:55:23;;;;;;;2.78;2.58;;;26.70;68.50;;;;;;4955339;29;20506;-80
2022/05/10 12:58:03;;;;;;;2.42;2.22;;;26.60;68.80;;;;;;4955648;28;20043;-80
2022/05/10 13:00:43;;;;;;;2.42;2.15;;;27.00;68.20;;;;;;4957390;28;20102;-82
2022/05/10 13:03:23;;;;;;;3.97;2.72;;;27.40;68.00;;;;;;4955906;28;20039;-80
2022/05/10 13:06:08;;;;;;;3.00;2.50;;;27.30;66.60;;;;;;4956681;28;20019;-81
2022/05/10 13:09:01;;;;;;;2.47;2.10;;;27.20;67.00;;;;;;4957328;28;20031;-80
2022/05/10 13:11:31;;;;;;;2.95;2.75;;;27.20;67.90;;;;;;4956614;28;20015;-80
2022/05/10 13:14:00;;;;;;;2.55;2.35;;;27.50;67.20;;;;;;4955528;28;20035;-79
2022/05/10 13:16:26;;;;;;;2.08;1.95;;;27.50;66.80;;;;;;4954640;28;20031;-79
2022/05/10 13:18:54;;;;;;;2.47;2.28;;;27.70;66.60;;;;;;4954490;29;20046;-81
2022/05/10 13:21:25;;;;;;;3.17;2.35;;;27.80;66.70;;;;;;4955910;28;20102;-81
2022/05/10 13:23:53;;;;;;;2.63;2.40;;;27.70;65.70;;;;;;4954401;29;20562;-80
2022/05/10 13:26:19;;;;;;;2.70;2.50;;;27.60;65.90;;;;;;4954023;29;20019;-80